Time;durP1;ratioP1;P1;durP2;ratioP2;P2;SDS_P1;SDS_P2;PMS_P1;PMS_P2;Temp;Humidity;BMP_temperature;BMP_pressure;BME280_temperature;BME280_humidity;BME280_pressure;Samples;Min_cycle;Max_cycle;Signal;HPM_P1;HPM_P2
2022/10/31 00:01:32;;;;;;;7.15;5.03;;;12.40;99.90;;;;;;5070693;28;20039;-81
2022/10/31 00:03:58;;;;;;;8.63;5.00;;;12.30;99.90;;;;;;5087316;28;20031;-81
2022/10/31 00:06:24;;;;;;;14.10;6.38;;;12.30;99.90;;;;;;5083265;28;20139;-80
2022/10/31 00:08:59;;;;;;;10.48;6.05;;;12.30;99.90;;;;;;5084651;28;20102;-81
2022/10/31 00:11:24;;;;;;;13.35;6.45;;;12.30;99.90;;;;;;5089547;28;20017;-81
2022/10/31 00:13:50;;;;;;;9.25;5.57;;;12.30;99.90;;;;;;5083782;28;20039;-81
2022/10/31 00:16:24;;;;;;;7.85;5.25;;;12.20;99.90;;;;;;5089143;28;20044;-81
2022/10/31 00:18:57;;;;;;;8.23;5.15;;;12.20;99.90;;;;;;5096603;28;20032;-80
2022/10/31 00:21:23;;;;;;;10.73;6.07;;;12.20;99.90;;;;;;5091432;28;20090;-82
2022/10/31 00:23:49;;;;;;;8.63;5.35;;;12.10;99.90;;;;;;5073614;28;20059;-82
2022/10/31 00:26:15;;;;;;;9.00;5.20;;;12.10;99.90;;;;;;5090588;28;20021;-82
2022/10/31 00:28:41;;;;;;;10.95;6.47;;;12.10;99.90;;;;;;5090022;28;20020;-83
2022/10/31 00:31:09;;;;;;;9.45;5.47;;;12.00;99.90;;;;;;5070989;28;20028;-82
2022/10/31 00:33:37;;;;;;;11.10;5.05;;;12.00;99.90;;;;;;5090369;28;20100;-81
2022/10/31 00:36:04;;;;;;;13.80;5.68;;;12.10;99.90;;;;;;5092018;28;20051;-81
2022/10/31 00:38:30;;;;;;;11.38;5.45;;;12.00;99.90;;;;;;5072672;28;20021;-81
2022/10/31 00:40:56;;;;;;;13.80;6.40;;;12.00;99.90;;;;;;5089442;28;20032;-80
2022/10/31 00:43:22;;;;;;;9.05;5.90;;;12.00;99.90;;;;;;5073356;28;20035;-81
2022/10/31 00:45:48;;;;;;;9.25;5.63;;;11.90;99.90;;;;;;5089945;28;20032;-81
2022/10/31 00:48:13;;;;;;;11.73;5.93;;;12.00;99.90;;;;;;5098987;28;20013;-82
2022/10/31 00:50:39;;;;;;;9.70;5.57;;;11.90;99.90;;;;;;5096148;28;20028;-81
2022/10/31 00:53:05;;;;;;;7.95;5.50;;;11.90;99.90;;;;;;5065650;28;20048;-82
2022/10/31 00:55:31;;;;;;;16.08;6.15;;;11.90;99.90;;;;;;5089768;28;20025;-82
2022/10/31 00:57:57;;;;;;;10.98;5.57;;;11.90;99.90;;;;;;5088916;28;20567;-82
2022/10/31 01:00:23;;;;;;;11.38;5.85;;;11.90;99.90;;;;;;5089459;28;20098;-82
2022/10/31 01:02:49;;;;;;;10.23;6.03;;;11.90;99.90;;;;;;5087784;28;20032;-82
2022/10/31 01:05:14;;;;;;;9.63;5.70;;;11.90;99.90;;;;;;5088083;28;20041;-82
2022/10/31 01:07:41;;;;;;;10.88;5.32;;;11.90;99.90;;;;;;5070159;28;20055;-81
2022/10/31 01:10:07;;;;;;;9.27;4.78;;;11.90;99.90;;;;;;5089198;28;20024;-82
2022/10/31 01:12:41;;;;;;;8.88;5.03;;;11.90;99.90;;;;;;5089599;28;20038;-81
2022/10/31 01:15:08;;;;;;;11.15;5.00;;;11.80;99.90;;;;;;5089214;28;20033;-81
2022/10/31 01:17:34;;;;;;;10.27;6.13;;;11.80;99.90;;;;;;5093268;28;20079;-81
2022/10/31 01:19:59;;;;;;;14.82;6.55;;;11.80;99.90;;;;;;5081622;28;20050;-81
2022/10/31 01:22:25;;;;;;;12.10;5.57;;;11.80;99.90;;;;;;5090348;28;20108;-81
2022/10/31 01:24:51;;;;;;;15.85;5.15;;;11.80;99.90;;;;;;5077348;28;20055;-81
2022/10/31 01:27:16;;;;;;;9.23;5.03;;;11.70;99.90;;;;;;5090119;28;20016;-81
2022/10/31 01:29:42;;;;;;;9.90;5.13;;;11.70;99.90;;;;;;5090390;28;20027;-81
2022/10/31 01:32:07;;;;;;;9.93;4.53;;;11.70;99.90;;;;;;5090742;28;20055;-81
2022/10/31 01:34:33;;;;;;;6.60;4.03;;;11.70;99.90;;;;;;5088330;28;20029;-82
2022/10/31 01:36:59;;;;;;;5.80;4.07;;;11.60;99.90;;;;;;5072697;28;20032;-81
2022/10/31 01:39:24;;;;;;;10.70;4.45;;;11.60;99.90;;;;;;5070092;28;20488;-81
2022/10/31 01:41:53;;;;;;;16.73;5.55;;;11.60;99.90;;;;;;5088824;28;20020;-81
2022/10/31 01:44:18;;;;;;;7.10;4.47;;;11.60;99.90;;;;;;5073255;28;20016;-80
2022/10/31 01:46:50;;;;;;;7.13;4.53;;;11.60;99.90;;;;;;5087874;28;20032;-80
2022/10/31 01:49:24;;;;;;;8.77;4.25;;;11.50;99.90;;;;;;5081368;28;20020;-80
2022/10/31 01:52:04;;;;;;;9.13;4.10;;;11.60;99.90;;;;;;5088681;28;20067;-81
2022/10/31 01:54:42;;;;;;;9.07;4.55;;;11.50;99.90;;;;;;5089452;28;20092;-80
2022/10/31 01:57:12;;;;;;;9.23;4.82;;;11.50;99.90;;;;;;5088459;28;20386;-80
2022/10/31 01:59:42;;;;;;;11.93;4.50;;;11.50;99.90;;;;;;5094253;28;20036;-81
2022/10/31 02:02:08;;;;;;;8.63;5.43;;;11.50;99.90;;;;;;5089175;28;20036;-80
2022/10/31 02:04:35;;;;;;;7.90;3.88;;;11.50;99.90;;;;;;5090074;28;20479;-81
2022/10/31 02:07:09;;;;;;;6.05;3.90;;;11.40;99.90;;;;;;5088152;28;20037;-81
2022/10/31 02:09:37;;;;;;;7.78;3.83;;;11.40;99.90;;;;;;5067975;28;20017;-82
2022/10/31 02:12:04;;;;;;;6.82;4.30;;;11.40;99.90;;;;;;5088511;28;20024;-81
2022/10/31 02:14:31;;;;;;;6.38;4.18;;;11.40;99.90;;;;;;5086749;28;20020;-81
2022/10/31 02:16:57;;;;;;;11.90;4.18;;;11.40;99.90;;;;;;5069339;28;20163;-81
2022/10/31 02:19:35;;;;;;;10.30;5.32;;;11.40;99.90;;;;;;5079384;28;20028;-80
2022/10/31 02:22:15;;;;;;;8.57;4.35;;;11.40;99.90;;;;;;5085450;28;20024;-80
2022/10/31 02:24:49;;;;;;;6.22;4.20;;;11.30;99.90;;;;;;5088756;28;20012;-82
2022/10/31 02:27:24;;;;;;;7.35;4.18;;;11.30;99.90;;;;;;5088872;28;20024;-81
2022/10/31 02:29:52;;;;;;;7.68;4.55;;;11.30;99.90;;;;;;5088739;28;20120;-81
2022/10/31 02:32:30;;;;;;;8.60;4.63;;;11.30;99.90;;;;;;5087675;28;20047;-81
2022/10/31 02:35:05;;;;;;;8.23;4.55;;;11.30;99.90;;;;;;5088627;28;20088;-81
2022/10/31 02:37:37;;;;;;;11.73;4.38;;;11.30;99.90;;;;;;5089202;28;20020;-81
2022/10/31 02:40:22;;;;;;;;;;;11.20;99.90;;;;;;5083577;28;20012;-83
2022/10/31 02:43:17;;;;;;;8.65;4.32;;;11.20;99.90;;;;;;5083873;28;19904;-80
2022/10/31 02:46:07;;;;;;;8.18;3.70;;;11.20;99.90;;;;;;5069573;28;20342;-81
2022/10/31 02:48:37;;;;;;;6.88;4.20;;;11.20;99.90;;;;;;5096403;28;20017;-81
2022/10/31 02:51:04;;;;;;;10.52;4.72;;;11.20;99.90;;;;;;5088922;28;20048;-81
2022/10/31 02:53:34;;;;;;;8.43;4.78;;;11.20;99.90;;;;;;5089090;28;20040;-80
2022/10/31 02:56:14;;;;;;;7.13;4.40;;;11.10;99.90;;;;;;5084432;28;20029;-79
2022/10/31 02:58:46;;;;;;;7.75;3.83;;;11.10;99.90;;;;;;5087442;28;20089;-81
2022/10/31 03:01:41;;;;;;;5.75;3.22;;;11.10;99.90;;;;;;5088293;28;20115;-81
2022/10/31 03:04:24;;;;;;;7.22;3.42;;;11.10;99.90;;;;;;5089870;28;20035;-81
2022/10/31 03:06:55;;;;;;;7.22;3.75;;;11.10;99.90;;;;;;5071258;28;20028;-80
2022/10/31 03:09:51;;;;;;;7.60;3.67;;;11.10;99.90;;;;;;5086574;28;20092;-80
2022/10/31 03:12:49;;;;;;;7.70;3.70;;;11.10;99.90;;;;;;5087375;28;20039;-82
2022/10/31 03:15:38;;;;;;;8.93;3.55;;;11.10;99.90;;;;;;5078926;28;20036;-82
2022/10/31 03:18:32;;;;;;;6.95;4.18;;;11.10;99.90;;;;;;5089901;28;20012;-81
2022/10/31 03:21:33;;;;;;;6.35;3.90;;;11.10;99.90;;;;;;5078458;28;20009;-81
2022/10/31 03:24:00;;;;;;;6.50;3.78;;;11.10;99.90;;;;;;5095594;28;20036;-81
2022/10/31 03:26:26;;;;;;;7.22;3.97;;;11.10;99.90;;;;;;5090699;28;20063;-81
2022/10/31 03:29:07;;;;;;;7.70;4.47;;;11.10;99.90;;;;;;5070279;28;20021;-81
2022/10/31 03:31:55;;;;;;;8.25;3.90;;;11.10;99.90;;;;;;5089009;28;20017;-82
2022/10/31 03:34:21;;;;;;;12.68;4.55;;;11.10;99.90;;;;;;5085994;28;20050;-82
2022/10/31 03:36:51;;;;;;;11.95;4.25;;;11.00;99.90;;;;;;5087683;28;20065;-80
2022/10/31 03:39:20;;;;;;;7.95;4.32;;;11.10;99.90;;;;;;5086815;28;20082;-81
2022/10/31 03:41:58;;;;;;;8.27;4.15;;;11.00;99.90;;;;;;5069268;28;20032;-81
2022/10/31 03:44:26;;;;;;;6.25;3.45;;;11.00;99.90;;;;;;5068172;28;20048;-80
2022/10/31 03:46:52;;;;;;;6.05;3.50;;;11.00;99.90;;;;;;5087568;28;20028;-80
2022/10/31 03:49:17;;;;;;;6.65;3.67;;;11.00;99.90;;;;;;5101356;28;20035;-81
2022/10/31 03:52:20;;;;;;;5.45;3.20;;;10.90;99.90;;;;;;5094984;28;20024;-81
2022/10/31 03:54:58;;;;;;;7.43;3.97;;;10.90;99.90;;;;;;5091992;28;20060;-81
2022/10/31 03:57:39;;;;;;;9.20;4.30;;;10.90;99.90;;;;;;5108346;28;20016;-80
2022/10/31 04:00:11;;;;;;;6.32;4.25;;;10.90;99.90;;;;;;5105800;28;20042;-81
2022/10/31 04:02:42;;;;;;;7.15;3.30;;;10.90;99.90;;;;;;5106463;28;20051;-79
2022/10/31 04:05:09;;;;;;;6.53;4.18;;;10.90;99.90;;;;;;5091022;28;20032;-82
2022/10/31 04:07:39;;;;;;;6.28;3.67;;;10.90;99.90;;;;;;5090305;28;20013;-81
2022/10/31 04:10:09;;;;;;;6.68;3.40;;;10.90;99.90;;;;;;5088974;28;20036;-80
2022/10/31 04:12:36;;;;;;;5.22;3.30;;;10.90;99.90;;;;;;5071756;28;20485;-80
2022/10/31 04:15:04;;;;;;;5.10;3.30;;;10.90;99.90;;;;;;5087750;28;20082;-79
2022/10/31 04:17:34;;;;;;;9.95;4.97;;;10.90;99.90;;;;;;5089927;28;20028;-80
2022/10/31 04:20:01;;;;;;;6.95;4.15;;;10.90;99.90;;;;;;5085570;28;20060;-80
2022/10/31 04:22:26;;;;;;;6.82;3.70;;;11.00;99.90;;;;;;5085603;28;20036;-80
2022/10/31 04:24:52;;;;;;;8.43;3.88;;;11.00;99.90;;;;;;5082592;28;20035;-79
2022/10/31 04:27:17;;;;;;;9.70;4.43;;;11.00;99.90;;;;;;5083330;28;20013;-79
2022/10/31 04:29:43;;;;;;;7.75;3.92;;;11.00;99.90;;;;;;5066960;28;20185;-81
2022/10/31 04:32:09;;;;;;;6.35;3.85;;;11.00;99.90;;;;;;5084820;28;20477;-79
2022/10/31 04:34:34;;;;;;;8.13;3.63;;;11.00;99.90;;;;;;5086412;28;20021;-80
2022/10/31 04:37:00;;;;;;;6.93;3.90;;;10.90;99.90;;;;;;5084732;28;20024;-80
2022/10/31 04:39:29;;;;;;;7.82;3.90;;;10.90;99.90;;;;;;5083738;28;20040;-79
2022/10/31 04:41:54;;;;;;;7.90;3.47;;;10.90;99.90;;;;;;5083172;28;20037;-80
2022/10/31 04:44:20;;;;;;;7.28;3.28;;;10.80;99.90;;;;;;5084746;28;20099;-80
2022/10/31 04:46:46;;;;;;;9.25;3.22;;;10.80;99.90;;;;;;5082363;28;20039;-80
2022/10/31 04:49:11;;;;;;;7.35;3.85;;;10.80;99.90;;;;;;5092749;28;20021;-80
2022/10/31 04:51:37;;;;;;;4.47;3.25;;;10.70;99.90;;;;;;5103777;28;20023;-80
2022/10/31 04:54:03;;;;;;;6.43;3.45;;;10.70;99.90;;;;;;5087080;28;20381;-79
2022/10/31 04:56:29;;;;;;;4.75;3.13;;;10.70;99.90;;;;;;5067353;28;20028;-78
2022/10/31 04:58:54;;;;;;;6.43;3.67;;;10.70;99.90;;;;;;5094724;28;20020;-79
2022/10/31 05:01:20;;;;;;;4.50;3.03;;;10.70;99.90;;;;;;5086462;28;20028;-78
2022/10/31 05:03:45;;;;;;;6.43;3.53;;;10.60;99.90;;;;;;5068030;28;20078;-78
2022/10/31 05:06:11;;;;;;;5.85;2.88;;;10.60;99.90;;;;;;5068619;28;20075;-78
2022/10/31 05:08:37;;;;;;;5.95;2.78;;;10.50;99.90;;;;;;5085639;28;20048;-80
2022/10/31 05:11:03;;;;;;;4.32;2.75;;;10.50;99.90;;;;;;5066081;28;20028;-80
2022/10/31 05:13:29;;;;;;;5.68;3.55;;;10.50;99.90;;;;;;5082291;28;20017;-80
2022/10/31 05:15:55;;;;;;;5.00;3.28;;;10.50;99.90;;;;;;5082557;28;20036;-79
2022/10/31 05:18:21;;;;;;;6.93;3.13;;;10.60;99.90;;;;;;5089642;28;20016;-81
2022/10/31 05:20:47;;;;;;;5.78;3.00;;;10.60;99.90;;;;;;5075869;28;20028;-79
2022/10/31 05:23:12;;;;;;;6.05;3.17;;;10.60;99.90;;;;;;5104349;28;20087;-80
2022/10/31 05:25:40;;;;;;;4.68;2.92;;;10.60;99.90;;;;;;5076951;28;20071;-79
2022/10/31 05:28:06;;;;;;;5.28;2.72;;;10.60;99.90;;;;;;5084566;28;20055;-80
2022/10/31 05:30:32;;;;;;;9.32;3.13;;;10.60;99.90;;;;;;5083411;28;20020;-81
2022/10/31 05:32:59;;;;;;;3.28;2.70;;;10.60;99.90;;;;;;5085689;28;20043;-78
2022/10/31 05:35:30;;;;;;;5.72;3.00;;;10.60;99.90;;;;;;5085928;28;20635;-79
2022/10/31 05:37:57;;;;;;;6.78;3.17;;;10.60;99.90;;;;;;5085148;28;20036;-79
2022/10/31 05:40:23;;;;;;;3.92;3.35;;;10.60;99.90;;;;;;5084031;28;20052;-79
2022/10/31 05:42:51;;;;;;;5.60;2.67;;;10.60;99.90;;;;;;5083655;28;20016;-81
2022/10/31 05:45:18;;;;;;;5.78;3.35;;;10.60;99.90;;;;;;5084773;28;20028;-82
2022/10/31 05:47:56;;;;;;;4.82;3.10;;;10.60;99.90;;;;;;5063546;28;20021;-80
2022/10/31 05:50:22;;;;;;;6.82;3.67;;;10.60;99.90;;;;;;5079754;28;20016;-79
2022/10/31 05:52:58;;;;;;;5.65;3.00;;;10.50;99.90;;;;;;5081824;28;20017;-80
2022/10/31 05:55:25;;;;;;;6.82;3.28;;;10.50;99.90;;;;;;5080896;28;20029;-80
2022/10/31 05:57:51;;;;;;;4.78;2.70;;;10.50;99.90;;;;;;5078629;28;20500;-79
2022/10/31 06:00:18;;;;;;;6.03;3.15;;;10.50;99.90;;;;;;5080791;28;20060;-80
2022/10/31 06:02:43;;;;;;;5.28;2.88;;;10.50;99.90;;;;;;5061368;28;20032;-81
2022/10/31 06:05:09;;;;;;;4.38;2.70;;;10.50;99.90;;;;;;5079429;28;20036;-80
2022/10/31 06:07:35;;;;;;;5.35;3.05;;;10.50;99.90;;;;;;5080580;28;20051;-80
2022/10/31 06:10:02;;;;;;;4.80;3.30;;;10.50;99.90;;;;;;5078501;28;20028;-80
2022/10/31 06:12:28;;;;;;;5.13;2.78;;;10.50;99.90;;;;;;5077399;28;20017;-83
2022/10/31 06:14:54;;;;;;;4.45;3.05;;;10.50;99.90;;;;;;5080323;28;20032;-80
2022/10/31 06:17:19;;;;;;;6.97;2.53;;;10.50;99.90;;;;;;5060612;28;20073;-79
2022/10/31 06:19:45;;;;;;;3.95;2.88;;;10.60;99.90;;;;;;5087164;28;20028;-79
2022/10/31 06:22:11;;;;;;;3.47;2.38;;;10.60;99.90;;;;;;5082201;28;20017;-82
2022/10/31 06:24:38;;;;;;;5.47;2.85;;;10.60;99.90;;;;;;5062830;28;20500;-80
2022/10/31 06:27:03;;;;;;;4.35;2.92;;;10.70;99.90;;;;;;5062706;28;20090;-80
2022/10/31 06:29:29;;;;;;;4.60;2.35;;;10.80;99.90;;;;;;5081262;28;20385;-79
2022/10/31 06:31:55;;;;;;;6.70;2.88;;;10.80;99.90;;;;;;5084478;28;20454;-82
2022/10/31 06:34:20;;;;;;;7.30;3.30;;;10.80;99.90;;;;;;5081638;28;20029;-80
2022/10/31 06:36:47;;;;;;;7.57;2.97;;;10.90;99.90;;;;;;5083413;28;20029;-80
2022/10/31 06:39:13;;;;;;;6.00;3.63;;;10.90;99.90;;;;;;5083784;28;20029;-79
2022/10/31 06:41:39;;;;;;;6.22;3.45;;;10.90;99.90;;;;;;5066448;28;20024;-79
2022/10/31 06:44:06;;;;;;;6.88;3.10;;;11.00;99.90;;;;;;5084672;28;20017;-80
2022/10/31 06:46:32;;;;;;;7.28;3.45;;;11.00;99.90;;;;;;5062729;28;20024;-79
2022/10/31 06:48:57;;;;;;;8.63;3.45;;;11.00;99.90;;;;;;5092213;28;20054;-81
2022/10/31 06:51:23;;;;;;;7.85;3.53;;;11.00;99.90;;;;;;5108976;28;20059;-81
2022/10/31 06:53:49;;;;;;;7.18;3.60;;;11.10;99.90;;;;;;5109943;28;20040;-79
2022/10/31 06:56:14;;;;;;;5.80;3.22;;;11.10;99.90;;;;;;5102141;28;20035;-79
2022/10/31 06:58:40;;;;;;;5.97;3.00;;;11.10;99.90;;;;;;5086577;28;20023;-80
2022/10/31 07:01:06;;;;;;;3.78;2.47;;;11.20;99.90;;;;;;5111476;28;20062;-81
2022/10/31 07:03:31;;;;;;;5.22;2.80;;;11.20;99.90;;;;;;5096869;28;20025;-82
2022/10/31 07:05:57;;;;;;;6.65;2.67;;;11.30;99.90;;;;;;5092462;28;20036;-78
2022/10/31 07:08:24;;;;;;;5.75;3.10;;;11.40;99.90;;;;;;5088523;28;20080;-79
2022/10/31 07:10:56;;;;;;;7.00;3.22;;;11.50;99.90;;;;;;5086367;28;20118;-80
2022/10/31 07:13:25;;;;;;;8.43;3.42;;;11.50;99.90;;;;;;5079903;28;20024;-80
2022/10/31 07:15:53;;;;;;;10.02;3.38;;;11.60;99.90;;;;;;5060564;28;20028;-81
2022/10/31 07:18:18;;;;;;;7.20;3.38;;;11.70;99.90;;;;;;5086891;28;20036;-80
2022/10/31 07:20:44;;;;;;;13.32;3.63;;;12.00;99.90;;;;;;5083790;28;20090;-81
2022/10/31 07:23:10;;;;;;;10.20;3.55;;;12.30;99.90;;;;;;5081680;28;20048;-81
2022/10/31 07:25:37;;;;;;;6.18;3.08;;;13.10;99.90;;;;;;5083337;28;20086;-82
2022/10/31 07:28:03;;;;;;;4.63;2.85;;;13.50;99.90;;;;;;5084599;28;20016;-81
2022/10/31 07:30:28;;;;;;;5.57;2.63;;;13.50;99.90;;;;;;5081680;28;20055;-81
2022/10/31 07:32:55;;;;;;;6.53;3.35;;;13.40;99.90;;;;;;5080734;28;20462;-81
2022/10/31 07:35:26;;;;;;;3.72;2.50;;;13.20;99.90;;;;;;5083230;28;20021;-83
2022/10/31 07:37:52;;;;;;;2.25;2.00;;;13.20;99.90;;;;;;5081288;28;20025;-80
2022/10/31 07:40:18;;;;;;;4.03;2.58;;;13.30;99.90;;;;;;5082363;28;20029;-81
2022/10/31 07:42:48;;;;;;;4.68;2.53;;;14.20;99.90;;;;;;5083102;28;20032;-80
2022/10/31 07:45:16;;;;;;;2.67;2.10;;;15.00;98.10;;;;;;5081943;28;20145;-80
2022/10/31 07:47:42;;;;;;;5.95;2.40;;;15.20;96.10;;;;;;5088280;28;20016;-81
2022/10/31 07:50:10;;;;;;;5.32;2.50;;;15.00;95.60;;;;;;5095121;28;20020;-81
2022/10/31 07:52:36;;;;;;;4.07;2.08;;;14.70;95.70;;;;;;5082903;28;20055;-81
2022/10/31 07:55:02;;;;;;;3.83;2.42;;;14.50;95.90;;;;;;5066683;28;20024;-81
2022/10/31 07:57:28;;;;;;;3.00;2.00;;;14.80;96.20;;;;;;5085434;28;20095;-80
2022/10/31 07:59:54;;;;;;;4.70;1.80;;;15.80;95.60;;;;;;5083704;28;20070;-82
2022/10/31 08:02:20;;;;;;;5.85;2.65;;;16.70;92.80;;;;;;5083974;28;20032;-79
2022/10/31 08:04:46;;;;;;;3.75;2.47;;;16.80;91.40;;;;;;5085449;28;20209;-81
2022/10/31 08:07:11;;;;;;;3.75;2.15;;;16.50;91.00;;;;;;5083438;28;20032;-80
2022/10/31 08:09:37;;;;;;;2.72;1.70;;;16.20;91.40;;;;;;5083605;28;20029;-80
2022/10/31 08:12:03;;;;;;;2.53;1.95;;;15.90;91.90;;;;;;5085734;28;20030;-82
2022/10/31 08:14:28;;;;;;;3.78;2.10;;;15.80;92.10;;;;;;5087122;28;20020;-79
2022/10/31 08:16:54;;;;;;;5.68;2.67;;;15.70;92.30;;;;;;5087174;28;20170;-80
2022/10/31 08:19:20;;;;;;;4.75;2.70;;;15.70;92.40;;;;;;5098541;28;20117;-79
2022/10/31 08:21:46;;;;;;;6.22;3.25;;;15.70;92.50;;;;;;5107864;28;20020;-79
2022/10/31 08:24:11;;;;;;;7.60;3.45;;;15.70;92.50;;;;;;5099059;28;20017;-80
2022/10/31 08:26:37;;;;;;;7.93;3.72;;;15.70;92.60;;;;;;5091669;28;20054;-82
2022/10/31 08:29:03;;;;;;;6.28;3.22;;;15.70;92.80;;;;;;5090784;28;20318;-82
2022/10/31 08:31:29;;;;;;;7.15;3.08;;;15.80;92.70;;;;;;5075423;28;20025;-81
2022/10/31 08:33:55;;;;;;;10.00;3.85;;;16.00;92.50;;;;;;5093561;28;20025;-81
2022/10/31 08:36:21;;;;;;;7.60;3.38;;;16.10;92.30;;;;;;5093753;28;20062;-81
2022/10/31 08:38:47;;;;;;;8.38;4.20;;;16.30;92.40;;;;;;5094871;28;20056;-80
2022/10/31 08:41:13;;;;;;;6.90;3.40;;;16.40;92.30;;;;;;5073344;28;20039;-80
2022/10/31 08:43:39;;;;;;;6.57;3.67;;;16.50;92.20;;;;;;5095237;28;20012;-81
2022/10/31 08:46:04;;;;;;;7.45;3.13;;;16.60;92.10;;;;;;5097972;28;20032;-82
2022/10/31 08:48:31;;;;;;;7.35;4.15;;;16.70;92.00;;;;;;5110868;28;20012;-82
2022/10/31 08:50:58;;;;;;;8.15;3.42;;;16.80;91.80;;;;;;5115050;28;20055;-80
2022/10/31 08:53:24;;;;;;;7.28;3.45;;;17.00;91.80;;;;;;5105003;28;20024;-82
2022/10/31 08:55:50;;;;;;;6.47;3.25;;;17.00;91.70;;;;;;5099096;28;20378;-82
2022/10/31 08:58:18;;;;;;;5.50;3.17;;;17.10;91.70;;;;;;5082931;28;20095;-82
2022/10/31 09:00:45;;;;;;;7.05;4.13;;;17.20;91.70;;;;;;5083833;28;20020;-82
2022/10/31 09:03:14;;;;;;;8.90;5.55;;;17.30;91.70;;;;;;5083572;28;20069;-82
2022/10/31 09:05:40;;;;;;;8.70;4.18;;;17.40;91.60;;;;;;5082107;28;20048;-82
2022/10/31 09:08:07;;;;;;;7.78;3.70;;;17.60;91.30;;;;;;5082362;28;20040;-82
2022/10/31 09:10:34;;;;;;;8.15;4.00;;;17.80;90.90;;;;;;5080550;28;20055;-82
2022/10/31 09:13:06;;;;;;;9.73;4.65;;;17.90;90.50;;;;;;5082687;28;20032;-82
2022/10/31 09:15:32;;;;;;;7.85;3.72;;;18.00;90.40;;;;;;5082731;28;20108;-81
2022/10/31 09:17:58;;;;;;;8.15;4.25;;;18.10;90.40;;;;;;5092331;28;20095;-81
2022/10/31 09:20:24;;;;;;;6.78;4.30;;;18.40;89.00;;;;;;5096298;28;20016;-82
2022/10/31 09:22:57;;;;;;;8.85;3.95;;;18.70;87.80;;;;;;5103870;28;20048;-82
2022/10/31 09:25:22;;;;;;;6.75;3.60;;;19.10;86.00;;;;;;5089526;28;20058;-84
2022/10/31 09:27:48;;;;;;;6.00;3.22;;;19.30;84.50;;;;;;5112212;28;20076;-82
2022/10/31 09:30:14;;;;;;;7.10;3.47;;;19.60;83.20;;;;;;5085535;28;20036;-81
2022/10/31 09:32:39;;;;;;;4.70;3.00;;;19.90;81.40;;;;;;5082390;28;20020;-82
2022/10/31 09:35:05;;;;;;;7.53;3.85;;;20.00;79.60;;;;;;5082539;28;20021;-83
2022/10/31 09:37:31;;;;;;;8.15;3.97;;;19.80;78.70;;;;;;5066292;28;20048;-83
2022/10/31 09:39:57;;;;;;;10.35;3.72;;;19.40;79.20;;;;;;5079826;28;20138;-83
2022/10/31 09:43:05;;;;;;;11.63;3.63;;;19.10;80.00;;;;;;5081718;28;20100;-82
2022/10/31 09:45:43;;;;;;;10.50;3.42;;;18.90;78.70;;;;;;5078937;28;20096;-83
2022/10/31 09:48:20;;;;;;;6.20;2.97;;;18.70;79.70;;;;;;5082113;28;20437;-84
2022/10/31 09:51:20;;;;;;;9.48;3.85;;;18.60;79.70;;;;;;5096070;28;20039;-82
2022/10/31 09:54:02;;;;;;;15.10;3.47;;;18.60;79.30;;;;;;5084044;28;20024;-82
2022/10/31 09:56:28;;;;;;;13.40;3.40;;;18.60;79.10;;;;;;5084556;28;20027;-81
2022/10/31 09:59:00;;;;;;;8.32;3.40;;;18.60;78.70;;;;;;5084370;28;20435;-82
2022/10/31 10:01:55;;;;;;;6.05;2.58;;;18.50;78.80;;;;;;5095212;28;20032;-81
2022/10/31 10:04:33;;;;;;;6.80;3.00;;;18.30;78.90;;;;;;5080026;28;20082;-81
2022/10/31 10:07:05;;;;;;;9.90;3.47;;;18.30;79.70;;;;;;5081451;28;20055;-81
2022/10/31 10:09:31;;;;;;;4.88;2.88;;;18.20;79.30;;;;;;5080973;28;20044;-83
2022/10/31 10:12:21;;;;;;;8.38;2.83;;;18.30;79.60;;;;;;5084367;28;20031;-82
2022/10/31 10:14:52;;;;;;;5.45;2.50;;;18.40;79.50;;;;;;5083813;28;20050;-82
2022/10/31 10:17:41;;;;;;;8.48;2.63;;;18.60;79.00;;;;;;5082162;28;20024;-80
2022/10/31 10:20:31;;;;;;;5.57;2.67;;;18.70;78.40;;;;;;5085664;28;20025;-82
2022/10/31 10:23:15;;;;;;;7.70;2.38;;;18.90;77.80;;;;;;5085350;28;20021;-81
2022/10/31 10:25:45;;;;;;;7.03;2.60;;;19.10;77.00;;;;;;5085855;28;20084;-81
2022/10/31 10:28:25;;;;;;;7.38;2.38;;;19.40;75.50;;;;;;5085667;28;20055;-82
2022/10/31 10:30:57;;;;;;;7.43;2.47;;;19.40;75.00;;;;;;5081335;28;20095;-81
2022/10/31 10:33:38;;;;;;;5.13;2.35;;;19.50;74.30;;;;;;5082750;28;20029;-82
2022/10/31 10:36:10;;;;;;;9.32;2.75;;;19.60;73.70;;;;;;5062113;28;20028;-83
2022/10/31 10:38:54;;;;;;;5.00;2.50;;;19.70;73.50;;;;;;5079657;28;20518;-82
2022/10/31 10:41:22;;;;;;;4.90;2.05;;;19.80;73.00;;;;;;5079441;28;20099;-84
2022/10/31 10:43:50;;;;;;;4.05;2.00;;;20.00;72.60;;;;;;5080429;28;20024;-81
2022/10/31 10:49:22;;;;;;;5.03;1.80;;;20.10;71.80;;;;;;5098838;28;20028;-81
2022/10/31 10:52:07;;;;;;;;;;;20.20;71.40;;;;;;5072770;28;20017;-81
2022/10/31 10:54:39;;;;;;;9.98;2.80;;;20.30;70.60;;;;;;5072632;28;19949;-80
2022/10/31 10:57:17;;;;;;;9.90;2.92;;;20.20;69.70;;;;;;5081501;28;20067;-81
2022/10/31 10:59:43;;;;;;;7.18;2.20;;;20.10;69.90;;;;;;5078866;28;20035;-82
2022/10/31 11:02:24;;;;;;;7.95;3.00;;;20.10;69.40;;;;;;5081460;28;20028;-83
2022/10/31 11:04:53;;;;;;;5.90;2.50;;;20.00;68.20;;;;;;5061259;28;20036;-81
2022/10/31 11:07:20;;;;;;;11.38;2.90;;;20.00;68.10;;;;;;5079753;28;20066;-81
2022/10/31 11:09:46;;;;;;;7.55;2.97;;;20.00;68.00;;;;;;5081057;28;20063;-81
2022/10/31 11:12:33;;;;;;;6.95;2.10;;;20.00;67.80;;;;;;5079357;28;20028;-80
2022/10/31 11:15:05;;;;;;;9.50;2.63;;;20.00;67.90;;;;;;5078922;28;20021;-83
2022/10/31 11:17:34;;;;;;;11.63;3.40;;;20.00;67.50;;;;;;5082976;28;20439;-83
2022/10/31 11:20:00;;;;;;;8.05;2.65;;;19.80;67.90;;;;;;5097907;28;20094;-81
2022/10/31 11:22:26;;;;;;;7.38;2.72;;;19.90;68.60;;;;;;5093628;28;20135;-81
2022/10/31 11:24:52;;;;;;;7.85;2.97;;;20.00;68.40;;;;;;5061032;28;20029;-82
2022/10/31 11:27:23;;;;;;;5.20;2.97;;;20.20;67.90;;;;;;5060791;28;20036;-82
2022/10/31 11:29:50;;;;;;;7.78;2.70;;;20.40;67.40;;;;;;5061229;28;20052;-82
2022/10/31 11:32:24;;;;;;;6.32;2.10;;;20.60;67.00;;;;;;5080755;28;20112;-83
2022/10/31 11:35:00;;;;;;;4.55;2.45;;;20.60;66.70;;;;;;5083323;28;20039;-82
2022/10/31 11:37:39;;;;;;;7.65;2.63;;;20.80;66.20;;;;;;5082777;28;20029;-84
2022/10/31 11:40:06;;;;;;;3.63;2.35;;;20.90;65.80;;;;;;5081688;28;20035;-83
2022/10/31 11:42:41;;;;;;;5.50;2.47;;;21.00;65.50;;;;;;5084609;28;20135;-83
2022/10/31 11:45:27;;;;;;;7.93;2.83;;;21.20;65.20;;;;;;5065437;28;20082;-83
2022/10/31 11:47:55;;;;;;;5.10;2.70;;;21.40;64.40;;;;;;5091280;28;20028;-81
2022/10/31 11:50:32;;;;;;;7.32;2.85;;;21.40;64.10;;;;;;5084864;28;20405;-84
2022/10/31 11:52:58;;;;;;;6.07;2.78;;;21.40;62.80;;;;;;5084966;28;20020;-84
2022/10/31 11:55:36;;;;;;;8.77;2.95;;;21.50;62.80;;;;;;5084609;28;20091;-82
2022/10/31 11:58:02;;;;;;;5.10;2.20;;;21.50;62.50;;;;;;5085121;28;20024;-84
2022/10/31 12:00:32;;;;;;;6.15;2.80;;;21.40;62.60;;;;;;5083567;28;20020;-85
2022/10/31 12:03:27;;;;;;;7.43;2.78;;;21.40;62.60;;;;;;5084405;28;20016;-84
2022/10/31 12:06:07;;;;;;;6.72;2.67;;;21.30;62.50;;;;;;5083232;28;20032;-82
2022/10/31 12:08:38;;;;;;;6.45;2.47;;;21.20;62.90;;;;;;5084594;28;20025;-84
2022/10/31 12:11:15;;;;;;;11.02;2.97;;;21.00;63.50;;;;;;5087823;28;20021;-84
2022/10/31 12:13:41;;;;;;;9.20;3.63;;;20.90;64.20;;;;;;5087192;28;20027;-83
2022/10/31 12:16:06;;;;;;;8.48;3.47;;;20.60;64.50;;;;;;5087339;28;20075;-83
2022/10/31 12:18:44;;;;;;;7.30;2.85;;;20.50;65.20;;;;;;5104840;28;20020;-81
2022/10/31 12:21:25;;;;;;;9.10;3.08;;;20.40;65.70;;;;;;5119677;28;20027;-83
2022/10/31 12:24:02;;;;;;;11.95;2.97;;;20.40;66.30;;;;;;5108641;28;20036;-84
2022/10/31 12:26:49;;;;;;;10.00;2.67;;;20.30;66.60;;;;;;5102909;28;20050;-84
2022/10/31 12:29:15;;;;;;;5.18;2.28;;;20.20;67.40;;;;;;5081910;28;20021;-83
2022/10/31 12:31:51;;;;;;;13.82;2.38;;;20.10;67.90;;;;;;5085477;28;20040;-85
2022/10/31 12:34:33;;;;;;;3.30;1.92;;;20.20;68.30;;;;;;5086350;28;20040;-83
2022/10/31 12:37:27;;;;;;;12.27;3.83;;;20.20;68.50;;;;;;5086612;28;20162;-83
2022/10/31 12:40:15;;;;;;;10.93;3.53;;;20.10;68.20;;;;;;5087047;28;20054;-85
2022/10/31 12:42:56;;;;;;;7.22;2.70;;;19.90;69.10;;;;;;5080517;28;20056;-84
2022/10/31 12:45:49;;;;;;;10.65;3.25;;;19.90;69.50;;;;;;5088478;28;20406;-84
2022/10/31 12:48:30;;;;;;;7.22;3.40;;;19.90;69.30;;;;;;5089647;28;20537;-85
2022/10/31 12:51:17;;;;;;;7.35;2.95;;;20.00;69.60;;;;;;5093231;28;20058;-84
2022/10/31 12:53:47;;;;;;;9.68;3.05;;;20.10;69.60;;;;;;5087158;28;20025;-85
2022/10/31 12:56:33;;;;;;;4.55;2.05;;;20.30;69.20;;;;;;5087326;28;20032;-84
2022/10/31 12:59:26;;;;;;;4.70;2.10;;;20.60;69.00;;;;;;5068760;28;20021;-84
2022/10/31 13:02:18;;;;;;;8.35;3.33;;;20.70;68.50;;;;;;5085826;28;20105;-83
2022/10/31 13:05:01;;;;;;;7.68;2.90;;;20.70;68.10;;;;;;5087659;28;20034;-84
2022/10/31 13:08:09;;;;;;;7.97;3.03;;;20.70;68.20;;;;;;5085317;28;20051;-84